Time;durP1;ratioP1;P1;durP2;ratioP2;P2;SDS_P1;SDS_P2;PMS_P1;PMS_P2;Temp;Humidity;BMP_temperature;BMP_pressure;BME280_temperature;BME280_humidity;BME280_pressure;Samples;Min_cycle;Max_cycle;Signal;HPM_P1;HPM_P2
2021/01/26 00:02:04;;;;;;;3.73;3.53;;;19.20;44.50;;;;;;5034920;28;20492;-67
2021/01/26 00:04:30;;;;;;;3.50;3.20;;;19.20;44.30;;;;;;5026419;28;20482;-67
2021/01/26 00:06:56;;;;;;;3.57;3.10;;;19.20;44.20;;;;;;5031919;28;20486;-67
2021/01/26 00:09:23;;;;;;;4.17;3.60;;;19.30;44.30;;;;;;5031747;28;21236;-68
2021/01/26 00:11:50;;;;;;;3.53;3.20;;;19.30;44.10;;;;;;5032304;28;20483;-68
2021/01/26 00:14:16;;;;;;;4.40;3.20;;;19.30;44.20;;;;;;5016808;28;20495;-67
2021/01/26 00:16:42;;;;;;;4.43;3.20;;;19.30;44.00;;;;;;5029861;28;20486;-68
2021/01/26 00:19:08;;;;;;;4.10;3.83;;;19.30;44.10;;;;;;5032596;28;20513;-67
2021/01/26 00:21:34;;;;;;;3.00;2.80;;;19.30;44.10;;;;;;5028205;28;20545;-68
2021/01/26 00:24:00;;;;;;;2.87;2.77;;;19.30;44.10;;;;;;5028024;28;20478;-67
2021/01/26 00:26:27;;;;;;;3.70;3.40;;;19.30;44.00;;;;;;5028006;28;20908;-68
2021/01/26 00:28:53;;;;;;;3.87;3.57;;;19.20;44.00;;;;;;5032433;28;20485;-67
2021/01/26 00:31:20;;;;;;;3.60;3.40;;;19.20;43.90;;;;;;5029378;28;20480;-67
2021/01/26 00:33:46;;;;;;;4.23;3.90;;;19.20;43.90;;;;;;5030283;28;20479;-68
2021/01/26 00:36:12;;;;;;;4.10;3.80;;;19.20;43.80;;;;;;5034478;28;20478;-67
2021/01/26 00:38:38;;;;;;;2.93;2.80;;;19.20;43.90;;;;;;5030572;28;22634;-69
2021/01/26 00:41:04;;;;;;;4.93;3.90;;;19.20;43.80;;;;;;5033226;28;20484;-69
2021/01/26 00:43:31;;;;;;;4.30;3.17;;;19.20;43.70;;;;;;5027304;28;20490;-67
2021/01/26 00:45:58;;;;;;;3.50;3.30;;;19.20;43.70;;;;;;5030847;28;20482;-68
2021/01/26 00:48:24;;;;;;;4.47;3.90;;;19.20;43.60;;;;;;5028991;28;20493;-68
2021/01/26 00:50:50;;;;;;;4.13;3.83;;;19.20;43.50;;;;;;5027877;28;20875;-68
2021/01/26 00:53:16;;;;;;;3.23;2.97;;;19.20;43.50;;;;;;5031439;28;21096;-68
2021/01/26 00:55:42;;;;;;;3.83;3.53;;;19.20;43.50;;;;;;5024362;28;20498;-68
2021/01/26 00:58:08;;;;;;;3.67;3.37;;;19.20;43.40;;;;;;5013312;28;20475;-68
2021/01/26 01:00:36;;;;;;;3.83;3.53;;;19.20;43.40;;;;;;5030017;28;20502;-68
2021/01/26 01:03:03;;;;;;;3.27;3.07;;;19.20;43.30;;;;;;5027319;28;20491;-68
2021/01/26 01:05:29;;;;;;;5.27;3.70;;;19.30;43.40;;;;;;5019810;28;20475;-68
2021/01/26 01:07:55;;;;;;;3.30;3.00;;;19.30;43.30;;;;;;5031616;28;20482;-67
2021/01/26 01:10:23;;;;;;;3.53;3.23;;;19.30;43.30;;;;;;5027751;28;20485;-68
2021/01/26 01:12:50;;;;;;;3.30;3.10;;;19.30;43.30;;;;;;5013425;28;20865;-68
2021/01/26 01:15:16;;;;;;;3.47;3.27;;;19.30;43.30;;;;;;5016461;28;20887;-68
2021/01/26 01:17:43;;;;;;;3.63;3.33;;;19.30;43.20;;;;;;5031856;28;20483;-68
2021/01/26 01:20:11;;;;;;;3.83;3.63;;;19.30;43.20;;;;;;5028107;28;20479;-68
2021/01/26 01:22:37;;;;;;;4.13;3.50;;;19.30;43.10;;;;;;5026546;28;20491;-67
2021/01/26 01:25:05;;;;;;;4.07;3.70;;;19.30;43.10;;;;;;5026297;28;20478;-68
2021/01/26 01:27:31;;;;;;;4.00;3.77;;;19.20;43.00;;;;;;5028199;28;20470;-67
2021/01/26 01:29:57;;;;;;;5.00;4.53;;;19.20;42.90;;;;;;5019993;28;20483;-68
2021/01/26 01:32:23;;;;;;;3.93;3.63;;;19.20;42.90;;;;;;5028340;28;20485;-69
2021/01/26 01:34:49;;;;;;;3.53;3.27;;;19.20;42.80;;;;;;5024754;28;20545;-68
2021/01/26 01:37:16;;;;;;;6.63;3.70;;;19.20;43.00;;;;;;5033895;28;20463;-68
2021/01/26 01:39:43;;;;;;;3.73;3.43;;;19.20;42.90;;;;;;5031674;28;20483;-68
2021/01/26 01:42:09;;;;;;;5.50;3.40;;;19.20;42.80;;;;;;5027122;28;20968;-68
2021/01/26 01:44:36;;;;;;;3.70;3.40;;;19.20;42.90;;;;;;5018059;28;20928;-68
2021/01/26 01:47:03;;;;;;;3.80;3.50;;;19.20;42.70;;;;;;5041478;28;20626;-68
2021/01/26 01:49:32;;;;;;;3.43;3.03;;;19.30;42.90;;;;;;5030921;28;20474;-69
2021/01/26 01:51:58;;;;;;;11.80;3.63;;;19.30;42.80;;;;;;5027383;28;21481;-69
2021/01/26 01:54:28;;;;;;;3.53;3.23;;;19.30;42.70;;;;;;5027485;28;20491;-68
2021/01/26 01:56:55;;;;;;;3.63;3.33;;;19.30;42.50;;;;;;5019766;28;20487;-68
2021/01/26 01:59:28;;;;;;;4.00;3.70;;;19.30;42.60;;;;;;5017188;28;21726;-68
2021/01/26 02:01:54;;;;;;;4.10;3.80;;;19.30;42.60;;;;;;5029628;28;20482;-68
2021/01/26 02:04:22;;;;;;;8.40;3.67;;;19.30;42.60;;;;;;5026197;28;20482;-68
2021/01/26 02:06:51;;;;;;;3.30;3.00;;;19.30;42.50;;;;;;5030891;28;20589;-68
2021/01/26 02:09:19;;;;;;;3.80;3.47;;;19.30;42.40;;;;;;5017601;28;20515;-67
2021/01/26 02:11:46;;;;;;;3.50;3.20;;;19.30;42.50;;;;;;5017148;28;20493;-68
2021/01/26 02:14:13;;;;;;;4.50;4.10;;;19.30;42.50;;;;;;5014283;28;20490;-68
2021/01/26 02:16:49;;;;;;;4.90;3.40;;;19.40;42.50;;;;;;5028776;28;21050;-68
2021/01/26 02:20:09;;;;;;;3.80;2.97;;;19.40;42.40;;;;;;5017742;28;20546;-68
2021/01/26 02:23:17;;;;;;;3.93;3.57;;;19.40;42.30;;;;;;5010538;28;20860;-68
2021/01/26 02:26:29;;;;;;;3.03;2.83;;;19.30;42.30;;;;;;5007855;28;20533;-68
2021/01/26 02:28:58;;;;;;;3.53;3.23;;;19.30;42.30;;;;;;5028058;28;20484;-67
2021/01/26 02:31:45;;;;;;;6.80;3.00;;;19.30;42.40;;;;;;5028035;28;20501;-67
2021/01/26 02:34:52;;;;;;;2.97;2.77;;;19.30;42.40;;;;;;5023389;28;20582;-67
2021/01/26 02:37:54;;;;;;;3.60;3.30;;;19.30;42.50;;;;;;5025681;28;20491;-67
2021/01/26 02:40:23;;;;;;;3.80;2.97;;;19.20;42.30;;;;;;5027239;28;20483;-68
2021/01/26 02:42:52;;;;;;;3.53;3.30;;;19.20;42.30;;;;;;5018908;28;20494;-67
2021/01/26 02:45:23;;;;;;;4.23;3.53;;;19.20;42.20;;;;;;5013364;28;20493;-68
2021/01/26 02:47:57;;;;;;;8.93;3.37;;;19.20;42.10;;;;;;5021624;28;20500;-68
2021/01/26 02:50:25;;;;;;;3.63;3.33;;;19.20;42.00;;;;;;5020076;28;20494;-68
2021/01/26 02:52:55;;;;;;;3.50;3.20;;;19.30;42.20;;;;;;5025345;28;20493;-68
2021/01/26 02:55:26;;;;;;;4.30;3.07;;;19.20;42.10;;;;;;5033199;28;20599;-68
2021/01/26 02:57:53;;;;;;;3.37;3.07;;;19.30;42.10;;;;;;5031907;28;20499;-67
2021/01/26 03:00:21;;;;;;;3.30;3.03;;;19.30;42.20;;;;;;5030912;28;20866;-68
2021/01/26 03:02:50;;;;;;;3.47;3.27;;;19.30;42.20;;;;;;5003818;28;20476;-68
2021/01/26 03:05:17;;;;;;;3.47;3.27;;;19.30;42.10;;;;;;5033637;28;20482;-69
2021/01/26 03:07:46;;;;;;;5.23;3.60;;;19.30;42.10;;;;;;5033981;28;20486;-68
2021/01/26 03:10:13;;;;;;;3.07;2.87;;;19.20;42.00;;;;;;5035959;28;20490;-67
2021/01/26 03:12:42;;;;;;;4.40;3.73;;;19.20;42.10;;;;;;5030507;28;20486;-68
2021/01/26 03:15:11;;;;;;;5.17;3.50;;;19.20;42.00;;;;;;5029004;28;20498;-67
2021/01/26 03:17:42;;;;;;;3.33;3.00;;;19.20;42.80;;;;;;5034896;28;20874;-68
2021/01/26 03:20:12;;;;;;;3.23;3.03;;;19.20;41.90;;;;;;5038607;28;20559;-68
2021/01/26 03:22:38;;;;;;;3.23;3.03;;;19.20;41.90;;;;;;5029001;28;21625;-68
2021/01/26 03:25:06;;;;;;;3.77;3.47;;;19.20;41.90;;;;;;5031883;28;20486;-68
2021/01/26 03:27:35;;;;;;;3.43;3.23;;;19.20;41.90;;;;;;5033870;28;20490;-68
2021/01/26 03:30:03;;;;;;;7.60;3.30;;;19.20;41.90;;;;;;5037034;28;20504;-68
2021/01/26 03:32:31;;;;;;;3.13;2.83;;;19.20;42.00;;;;;;5028317;28;20487;-67
2021/01/26 03:34:57;;;;;;;3.60;2.93;;;19.20;41.90;;;;;;5029722;28;20491;-68
2021/01/26 03:37:23;;;;;;;2.80;2.70;;;19.20;41.90;;;;;;5032178;28;20484;-67
2021/01/26 03:39:51;;;;;;;3.07;2.93;;;19.20;41.90;;;;;;5032222;28;20877;-67
2021/01/26 03:42:17;;;;;;;7.40;3.77;;;19.20;41.90;;;;;;5021589;28;20483;-68
2021/01/26 03:44:43;;;;;;;3.50;3.20;;;19.20;41.70;;;;;;5022822;28;20525;-67
2021/01/26 03:47:28;;;;;;;3.27;2.97;;;19.20;41.70;;;;;;5038875;28;20467;-68
2021/01/26 03:50:15;;;;;;;3.63;3.43;;;19.20;41.80;;;;;;5027632;28;20490;-68
2021/01/26 03:52:50;;;;;;;3.20;3.00;;;19.20;41.80;;;;;;5028942;28;20483;-68
2021/01/26 03:55:19;;;;;;;3.67;3.47;;;19.20;41.80;;;;;;5020816;28;20567;-67
2021/01/26 03:57:54;;;;;;;3.50;3.20;;;19.20;41.70;;;;;;5029331;28;20478;-67
2021/01/26 04:00:25;;;;;;;4.73;3.40;;;19.20;41.70;;;;;;5021273;28;20474;-68
2021/01/26 04:03:27;;;;;;;4.40;3.40;;;19.20;41.50;;;;;;5028665;28;20862;-68
2021/01/26 04:05:57;;;;;;;3.10;2.90;;;19.20;41.50;;;;;;5015495;28;20482;-68
2021/01/26 04:08:27;;;;;;;3.57;3.37;;;19.20;41.30;;;;;;5034259;28;20494;-67
2021/01/26 04:10:57;;;;;;;3.90;3.60;;;19.20;40.90;;;;;;5030683;28;20485;-68
2021/01/26 04:13:27;;;;;;;3.87;3.57;;;19.20;40.70;;;;;;5026534;28;21015;-68
2021/01/26 04:15:54;;;;;;;3.50;3.20;;;19.10;40.70;;;;;;5031828;28;20478;-68
2021/01/26 04:18:22;;;;;;;3.60;3.40;;;19.20;40.70;;;;;;5026919;28;20479;-68
2021/01/26 04:20:49;;;;;;;4.87;2.93;;;19.30;40.60;;;;;;5033785;28;20483;-68
2021/01/26 04:23:16;;;;;;;3.27;3.17;;;19.30;40.20;;;;;;5025335;28;20479;-67
2021/01/26 04:25:43;;;;;;;3.77;3.50;;;19.40;40.50;;;;;;5028974;28;21106;-68
2021/01/26 04:28:11;;;;;;;3.97;3.60;;;19.50;40.20;;;;;;5015617;28;20480;-67
2021/01/26 04:30:37;;;;;;;3.73;3.43;;;19.50;40.10;;;;;;5031678;28;20537;-68
2021/01/26 04:33:05;;;;;;;3.90;3.60;;;19.40;40.10;;;;;;5028061;28;20479;-67
2021/01/26 04:35:31;;;;;;;4.77;3.93;;;19.30;40.00;;;;;;5026955;28;20495;-67
2021/01/26 04:37:57;;;;;;;3.63;3.43;;;19.40;40.00;;;;;;5038610;28;20482;-67
2021/01/26 04:40:25;;;;;;;3.63;3.37;;;19.40;40.30;;;;;;5027079;28;20490;-68
2021/01/26 04:42:55;;;;;;;4.00;3.70;;;19.40;40.40;;;;;;5028789;28;20480;-67
2021/01/26 04:45:25;;;;;;;3.67;3.40;;;19.40;40.20;;;;;;5029482;28;20479;-67
2021/01/26 04:47:56;;;;;;;3.17;2.97;;;19.40;40.30;;;;;;5031080;28;20474;-67
2021/01/26 04:50:26;;;;;;;4.07;3.30;;;19.40;40.40;;;;;;5030645;28;20909;-68
2021/01/26 04:53:14;;;;;;;3.67;3.33;;;19.30;40.10;;;;;;5022677;28;21091;-68
2021/01/26 04:55:48;;;;;;;3.93;3.53;;;19.30;40.20;;;;;;5032875;28;20483;-67
2021/01/26 04:58:34;;;;;;;3.70;3.30;;;19.30;40.30;;;;;;5028965;28;20508;-67
2021/01/26 05:01:05;;;;;;;3.17;3.00;;;19.30;40.40;;;;;;5015669;28;20482;-67
2021/01/26 05:03:57;;;;;;;3.30;3.10;;;19.30;40.40;;;;;;5021436;28;20507;-67
2021/01/26 05:06:25;;;;;;;3.80;3.50;;;19.30;40.70;;;;;;5030224;28;20474;-67
2021/01/26 05:08:52;;;;;;;4.07;3.63;;;19.20;40.30;;;;;;5030983;28;20495;-67
2021/01/26 05:11:21;;;;;;;5.37;3.23;;;19.20;40.20;;;;;;5030068;28;20491;-67
2021/01/26 05:13:49;;;;;;;6.77;3.90;;;19.20;40.50;;;;;;5013660;28;20471;-67
2021/01/26 05:16:18;;;;;;;3.60;3.40;;;19.30;40.40;;;;;;5029114;28;20481;-67
2021/01/26 05:18:48;;;;;;;3.63;3.20;;;19.30;41.20;;;;;;5025716;28;21091;-67
2021/01/26 05:21:18;;;;;;;3.87;3.57;;;19.30;40.40;;;;;;5029656;28;20510;-67
2021/01/26 05:23:46;;;;;;;3.70;3.50;;;19.30;40.40;;;;;;5025440;28;20487;-68
2021/01/26 05:26:13;;;;;;;3.27;3.17;;;19.40;40.40;;;;;;5029611;28;20486;-68
2021/01/26 05:28:42;;;;;;;3.83;3.50;;;19.40;40.30;;;;;;5029249;28;21278;-68
2021/01/26 05:31:13;;;;;;;3.80;3.53;;;19.40;40.20;;;;;;5031542;28;20996;-67
2021/01/26 05:33:39;;;;;;;3.20;3.00;;;19.40;40.00;;;;;;5024199;28;20566;-67
2021/01/26 05:36:06;;;;;;;3.93;3.23;;;19.40;40.10;;;;;;5030971;28;20499;-70
2021/01/26 05:38:32;;;;;;;3.90;3.60;;;19.40;40.10;;;;;;5027488;28;20513;-67
2021/01/26 05:41:00;;;;;;;3.60;3.30;;;19.50;40.00;;;;;;5030154;28;20488;-68
2021/01/26 05:43:28;;;;;;;3.47;3.20;;;19.50;39.80;;;;;;5024706;28;20490;-68
2021/01/26 05:45:56;;;;;;;4.27;3.70;;;19.50;39.50;;;;;;5032238;28;20487;-67
2021/01/26 05:48:23;;;;;;;3.80;3.60;;;19.50;39.50;;;;;;5029064;28;21393;-67
2021/01/26 05:50:49;;;;;;;3.80;3.53;;;19.50;39.40;;;;;;5030438;28;20490;-68
2021/01/26 05:53:17;;;;;;;4.77;4.30;;;19.40;39.30;;;;;;5027135;28;21198;-68
2021/01/26 05:55:56;;;;;;;3.90;3.60;;;19.40;39.70;;;;;;5020261;28;20874;-67
2021/01/26 05:58:25;;;;;;;4.70;4.30;;;19.40;40.10;;;;;;5024238;28;20584;-67
2021/01/26 06:00:56;;;;;;;4.80;4.40;;;19.40;39.30;;;;;;5024927;28;20480;-67
2021/01/26 06:03:22;;;;;;;5.00;4.47;;;19.30;39.30;;;;;;5025006;28;20490;-68
2021/01/26 06:06:00;;;;;;;5.07;4.67;;;19.30;39.20;;;;;;5026725;28;20496;-68
2021/01/26 06:08:26;;;;;;;5.70;5.07;;;19.30;38.60;;;;;;5018578;28;20467;-69
2021/01/26 06:10:52;;;;;;;6.23;5.43;;;19.30;38.50;;;;;;5026133;28;20483;-69
2021/01/26 06:13:24;;;;;;;6.90;6.13;;;19.30;38.40;;;;;;5024142;28;20479;-68
2021/01/26 06:15:50;;;;;;;6.30;5.70;;;19.30;38.50;;;;;;5018180;28;20830;-69
2021/01/26 06:18:18;;;;;;;5.43;4.93;;;19.30;38.50;;;;;;5025297;28;20489;-69
2021/01/26 06:20:45;;;;;;;5.97;5.23;;;19.30;38.40;;;;;;5029703;28;21034;-68
2021/01/26 06:23:13;;;;;;;5.70;5.20;;;19.30;38.10;;;;;;5021906;28;20483;-68
2021/01/26 06:25:39;;;;;;;5.30;4.70;;;19.40;38.20;;;;;;5028824;28;20836;-69
2021/01/26 06:28:14;;;;;;;4.67;4.27;;;19.40;38.20;;;;;;5032340;28;20475;-69
2021/01/26 06:30:50;;;;;;;3.90;3.60;;;19.50;38.30;;;;;;5034005;28;20529;-68
2021/01/26 06:33:37;;;;;;;3.30;3.10;;;19.50;38.30;;;;;;5016145;28;20486;-69
2021/01/26 06:36:08;;;;;;;3.90;3.47;;;19.50;38.40;;;;;;5033026;28;20482;-68
2021/01/26 06:38:56;;;;;;;6.50;3.40;;;19.50;38.80;;;;;;5029695;28;20497;-69
2021/01/26 06:41:29;;;;;;;3.40;3.20;;;19.50;38.50;;;;;;5028610;28;20494;-68
2021/01/26 06:44:03;;;;;;;2.87;2.77;;;19.50;38.90;;;;;;5019343;28;21095;-69
2021/01/26 06:46:38;;;;;;;2.40;2.30;;;19.50;39.00;;;;;;5031258;28;20486;-68
2021/01/26 06:49:14;;;;;;;2.87;2.67;;;19.50;39.10;;;;;;5030705;28;20495;-69
2021/01/26 06:52:08;;;;;;;3.77;3.37;;;19.60;39.00;;;;;;5030171;28;20490;-68
2021/01/26 06:54:46;;;;;;;3.33;3.03;;;19.60;39.10;;;;;;5020457;28;20479;-68
2021/01/26 06:57:35;;;;;;;2.67;2.57;;;19.70;39.20;;;;;;5031174;28;20474;-68
2021/01/26 07:00:16;;;;;;;3.77;3.30;;;19.70;39.00;;;;;;5030197;28;20990;-68
2021/01/26 07:03:18;;;;;;;2.70;2.53;;;19.60;39.50;;;;;;5028627;28;20865;-69
2021/01/26 07:05:58;;;;;;;2.90;2.70;;;19.60;39.20;;;;;;4963356;28;20474;-69
2021/01/26 07:08:52;;;;;;;2.67;2.47;;;19.50;39.40;;;;;;5030066;28;20486;-69
2021/01/26 07:11:57;;;;;;;4.07;3.00;;;19.50;39.20;;;;;;5025217;28;20500;-68
2021/01/26 07:14:29;;;;;;;4.87;3.03;;;19.50;39.20;;;;;;5024909;28;21100;-69
2021/01/26 07:16:57;;;;;;;2.53;2.37;;;19.50;39.10;;;;;;5038309;28;20497;-69
2021/01/26 07:19:44;;;;;;;2.80;2.37;;;19.50;39.20;;;;;;5031978;28;20518;-68
2021/01/26 07:22:36;;;;;;;3.10;2.90;;;19.50;39.30;;;;;;5031453;28;20482;-70
2021/01/26 07:25:12;;;;;;;2.90;2.70;;;19.50;39.40;;;;;;5029351;28;20517;-69
2021/01/26 07:28:11;;;;;;;3.07;2.87;;;19.50;39.30;;;;;;5038680;28;20485;-70
2021/01/26 07:30:39;;;;;;;4.40;2.90;;;19.50;39.40;;;;;;5041864;28;20479;-68
2021/01/26 07:33:06;;;;;;;2.90;2.70;;;19.50;39.70;;;;;;5030834;28;20517;-68
2021/01/26 07:35:35;;;;;;;2.93;2.70;;;19.50;40.00;;;;;;5030440;28;20962;-69
2021/01/26 07:38:06;;;;;;;3.90;2.80;;;19.50;40.10;;;;;;5028751;28;20578;-68
2021/01/26 07:40:33;;;;;;;2.97;2.87;;;19.50;40.10;;;;;;5031524;28;20540;-68
2021/01/26 07:43:04;;;;;;;4.97;3.40;;;19.50;40.00;;;;;;5026576;28;20484;-68
2021/01/26 07:45:32;;;;;;;2.60;2.50;;;19.50;39.80;;;;;;5030897;28;20498;-68
2021/01/26 07:48:02;;;;;;;3.17;2.87;;;19.50;39.90;;;;;;5031230;28;20491;-68
2021/01/26 07:50:30;;;;;;;3.10;2.90;;;19.50;40.00;;;;;;5028800;28;20557;-68
2021/01/26 07:52:59;;;;;;;5.10;3.50;;;19.40;40.30;;;;;;5026930;28;20487;-68
2021/01/26 07:55:31;;;;;;;4.30;3.43;;;19.40;40.10;;;;;;5028279;28;20518;-68
2021/01/26 07:57:58;;;;;;;3.47;3.27;;;19.40;39.90;;;;;;5034389;28;20488;-69
2021/01/26 08:00:28;;;;;;;4.00;3.70;;;19.40;40.10;;;;;;5029223;28;20515;-68
2021/01/26 08:02:55;;;;;;;4.63;4.27;;;19.40;40.00;;;;;;5028285;28;20480;-68
2021/01/26 08:05:38;;;;;;;7.00;3.30;;;19.40;40.00;;;;;;5029177;28;20487;-69
2021/01/26 08:08:04;;;;;;;3.63;3.33;;;19.40;40.00;;;;;;5033183;28;20475;-68
2021/01/26 08:10:32;;;;;;;4.03;3.70;;;19.40;40.00;;;;;;5031572;28;20494;-69
2021/01/26 08:12:58;;;;;;;3.60;3.40;;;19.40;40.00;;;;;;5026153;28;20866;-68
2021/01/26 08:15:29;;;;;;;3.37;3.27;;;19.40;40.10;;;;;;5030156;28;20543;-69
2021/01/26 08:17:55;;;;;;;3.53;3.33;;;19.40;40.20;;;;;;5033017;28;20512;-68
2021/01/26 08:20:28;;;;;;;2.57;2.47;;;19.40;40.20;;;;;;5035671;28;20494;-68
2021/01/26 08:22:56;;;;;;;3.80;3.50;;;19.40;40.00;;;;;;5024920;28;21037;-68
2021/01/26 08:25:25;;;;;;;3.17;3.00;;;19.30;40.10;;;;;;5030780;28;21044;-69
2021/01/26 08:27:55;;;;;;;3.03;2.70;;;19.30;40.20;;;;;;5028282;28;20490;-68
2021/01/26 08:30:23;;;;;;;3.03;2.83;;;19.30;40.40;;;;;;5031988;28;20488;-69
2021/01/26 08:33:14;;;;;;;4.70;3.20;;;19.40;40.60;;;;;;5022449;28;20475;-68
2021/01/26 08:35:45;;;;;;;3.87;3.27;;;19.40;40.50;;;;;;5032602;28;20481;-68
2021/01/26 08:38:27;;;;;;;2.90;2.70;;;19.40;40.60;;;;;;5031067;28;20487;-68
2021/01/26 08:41:05;;;;;;;3.33;3.13;;;19.40;40.50;;;;;;5022114;28;20482;-69
2021/01/26 08:43:43;;;;;;;3.70;3.50;;;19.40;40.70;;;;;;5026943;28;21019;-68
2021/01/26 08:46:10;;;;;;;3.87;3.40;;;19.40;40.40;;;;;;5026907;28;20541;-68
2021/01/26 08:48:36;;;;;;;4.77;3.60;;;19.30;40.30;;;;;;5033059;28;20476;-68
2021/01/26 08:51:11;;;;;;;3.87;3.37;;;19.30;40.40;;;;;;5028669;28;20495;-68
2021/01/26 08:53:38;;;;;;;3.40;3.20;;;19.30;40.50;;;;;;5023756;28;20506;-68
2021/01/26 08:56:13;;;;;;;3.80;3.10;;;19.30;40.60;;;;;;5029934;28;20540;-67
2021/01/26 08:58:40;;;;;;;4.90;4.60;;;19.20;41.50;;;;;;5026759;28;20489;-71
2021/01/26 09:01:08;;;;;;;9.00;7.23;;;19.00;41.00;;;;;;5028231;28;20491;-68
2021/01/26 09:03:37;;;;;;;8.60;6.30;;;19.00;39.90;;;;;;5023888;28;20494;-73
2021/01/26 09:06:05;;;;;;;17.03;6.63;;;19.10;41.00;;;;;;5025339;28;20535;-69
2021/01/26 09:08:51;;;;;;;7.47;5.50;;;19.10;40.00;;;;;;5024439;28;20505;-67
2021/01/26 09:11:21;;;;;;;6.57;5.90;;;19.20;40.30;;;;;;5015601;28;20490;-67
2021/01/26 09:13:47;;;;;;;6.57;4.77;;;19.20;40.20;;;;;;5026400;28;20992;-68
2021/01/26 09:16:17;;;;;;;14.10;6.00;;;19.20;40.30;;;;;;5030466;28;21220;-67
2021/01/26 09:18:43;;;;;;;5.87;5.37;;;19.20;40.30;;;;;;5028223;28;20915;-68
2021/01/26 09:21:12;;;;;;;6.50;4.53;;;19.20;40.30;;;;;;5029710;28;21108;-67
2021/01/26 09:23:39;;;;;;;5.80;4.80;;;19.20;40.20;;;;;;5014920;28;20491;-67
2021/01/26 09:26:10;;;;;;;5.00;4.50;;;19.30;40.20;;;;;;5019032;28;20851;-68
2021/01/26 09:28:38;;;;;;;6.10;4.40;;;19.30;40.20;;;;;;5027173;28;20484;-68
2021/01/26 09:31:04;;;;;;;5.97;4.17;;;19.20;40.30;;;;;;5029779;28;20478;-67
2021/01/26 09:33:33;;;;;;;4.70;3.23;;;19.30;40.30;;;;;;5021865;28;21072;-68
2021/01/26 09:36:08;;;;;;;5.27;3.60;;;19.20;40.20;;;;;;5031419;28;20569;-68
2021/01/26 09:38:35;;;;;;;3.90;3.60;;;19.20;40.40;;;;;;5026374;28;20568;-68
2021/01/26 09:41:03;;;;;;;4.53;4.10;;;19.20;40.50;;;;;;5027428;28;20496;-68
2021/01/26 09:43:30;;;;;;;4.20;3.90;;;19.20;40.30;;;;;;5016173;28;20564;-68
2021/01/26 09:45:58;;;;;;;3.90;3.53;;;19.20;40.20;;;;;;5028976;28;20491;-67
2021/01/26 09:48:36;;;;;;;3.77;3.57;;;19.30;40.30;;;;;;5030524;28;20860;-67
2021/01/26 09:51:17;;;;;;;3.97;3.40;;;19.30;40.20;;;;;;5026362;28;20543;-67
2021/01/26 09:53:45;;;;;;;4.40;4.10;;;19.30;40.10;;;;;;5024665;28;20482;-70
2021/01/26 09:56:12;;;;;;;3.70;3.50;;;19.40;40.20;;;;;;5028820;28;20548;-67
2021/01/26 09:58:38;;;;;;;3.20;3.00;;;19.40;40.10;;;;;;5026651;28;21056;-67
2021/01/26 10:01:04;;;;;;;5.30;4.53;;;19.40;40.10;;;;;;5022110;28;21014;-67
2021/01/26 10:03:30;;;;;;;4.37;3.97;;;19.40;40.10;;;;;;5019425;28;20565;-67
2021/01/26 10:05:59;;;;;;;4.33;3.93;;;19.40;40.10;;;;;;5026845;28;20486;-68
2021/01/26 10:08:28;;;;;;;5.20;3.40;;;19.50;40.20;;;;;;5025985;28;22093;-67
2021/01/26 10:10:54;;;;;;;4.87;4.47;;;19.40;40.00;;;;;;5031595;28;20499;-68
2021/01/26 10:13:31;;;;;;;4.00;3.63;;;19.50;40.10;;;;;;5019551;28;20571;-67
2021/01/26 10:15:58;;;;;;;3.80;3.50;;;19.50;40.20;;;;;;5030551;28;20482;-67
2021/01/26 10:18:26;;;;;;;5.57;3.60;;;19.50;40.20;;;;;;5026984;28;20485;-68
2021/01/26 10:20:59;;;;;;;4.47;4.10;;;19.50;40.20;;;;;;5028711;28;20494;-67
2021/01/26 10:23:27;;;;;;;3.60;3.40;;;19.50;40.20;;;;;;5022510;28;20486;-68
2021/01/26 10:26:04;;;;;;;3.40;3.20;;;19.50;40.30;;;;;;5029093;28;20482;-67
2021/01/26 10:28:30;;;;;;;3.50;3.30;;;19.40;40.20;;;;;;5022985;28;20501;-68
2021/01/26 10:30:56;;;;;;;3.50;3.20;;;19.50;40.20;;;;;;5027977;28;20536;-68
2021/01/26 10:33:31;;;;;;;7.70;3.70;;;19.50;40.20;;;;;;5019534;28;20479;-68
2021/01/26 10:36:33;;;;;;;3.03;2.87;;;19.40;40.20;;;;;;5028577;28;20540;-68
2021/01/26 10:39:00;;;;;;;3.40;3.20;;;19.40;40.10;;;;;;5025175;28;20597;-67
2021/01/26 10:41:28;;;;;;;3.70;3.40;;;19.50;40.30;;;;;;5024020;28;20887;-68
2021/01/26 10:44:01;;;;;;;3.63;3.27;;;19.50;40.30;;;;;;5022946;28;20490;-67
2021/01/26 10:46:29;;;;;;;3.30;3.10;;;19.50;40.30;;;;;;5028042;28;20537;-67
2021/01/26 10:49:07;;;;;;;3.43;3.13;;;19.50;40.30;;;;;;5031955;28;20495;-67
2021/01/26 10:51:37;;;;;;;2.50;2.40;;;19.50;40.40;;;;;;5029466;28;20497;-68
2021/01/26 10:54:05;;;;;;;3.47;3.17;;;19.50;40.90;;;;;;5025994;28;20522;-68
2021/01/26 10:56:31;;;;;;;3.03;2.83;;;19.50;40.50;;;;;;5031917;28;20482;-68
2021/01/26 10:58:58;;;;;;;3.67;3.40;;;19.50;40.70;;;;;;5034151;28;20901;-68
2021/01/26 11:01:24;;;;;;;4.73;4.43;;;19.40;40.50;;;;;;5039889;28;20917;-68
2021/01/26 11:03:50;;;;;;;4.30;3.90;;;19.40;40.00;;;;;;5035427;28;20474;-68
2021/01/26 11:06:17;;;;;;;4.70;4.30;;;19.40;40.20;;;;;;5029850;28;20470;-68
2021/01/26 11:08:43;;;;;;;4.10;3.80;;;19.40;40.20;;;;;;5031779;28;20487;-68
2021/01/26 11:11:11;;;;;;;4.33;3.70;;;19.40;40.30;;;;;;5032494;28;20510;-68
2021/01/26 11:13:37;;;;;;;9.63;4.30;;;19.40;40.30;;;;;;5032728;28;20498;-68
2021/01/26 11:16:04;;;;;;;3.07;2.87;;;19.40;40.30;;;;;;5037061;28;20493;-68
2021/01/26 11:18:30;;;;;;;3.03;2.83;;;19.30;40.30;;;;;;5036065;28;20487;-67
2021/01/26 11:20:56;;;;;;;6.47;3.10;;;19.40;40.50;;;;;;5034908;28;20478;-68
2021/01/26 11:23:23;;;;;;;3.00;2.90;;;19.40;40.40;;;;;;5034886;28;20478;-69
2021/01/26 11:25:49;;;;;;;3.17;2.87;;;19.40;40.40;;;;;;5037693;28;21399;-69
2021/01/26 11:28:16;;;;;;;3.07;2.90;;;19.40;40.50;;;;;;5036232;28;20560;-69
2021/01/26 11:30:42;;;;;;;2.23;2.13;;;19.40;40.60;;;;;;5035067;28;20856;-66
2021/01/26 11:33:08;;;;;;;2.80;2.60;;;19.40;40.60;;;;;;5035875;28;21061;-67
2021/01/26 11:35:34;;;;;;;2.97;2.73;;;19.40;40.60;;;;;;5034112;28;20503;-69
2021/01/26 11:38:01;;;;;;;2.47;2.37;;;19.40;40.60;;;;;;5035942;28;20482;-67
2021/01/26 11:40:27;;;;;;;2.40;2.20;;;19.40;40.70;;;;;;5034380;28;20481;-68
2021/01/26 11:42:53;;;;;;;2.20;2.10;;;19.40;40.70;;;;;;5038015;28;21325;-67
2021/01/26 11:45:22;;;;;;;2.23;2.13;;;19.50;40.60;;;;;;5035860;28;20482;-68
2021/01/26 11:47:48;;;;;;;1.90;1.80;;;19.50;40.50;;;;;;5023109;28;20486;-68
2021/01/26 11:50:15;;;;;;;2.30;2.20;;;19.50;40.60;;;;;;5035449;28;20485;-68
2021/01/26 11:52:41;;;;;;;2.33;2.13;;;19.50;40.50;;;;;;5031602;28;20487;-68
2021/01/26 11:55:08;;;;;;;2.00;1.90;;;19.50;40.50;;;;;;5034061;28;20479;-67
2021/01/26 11:57:34;;;;;;;2.00;1.97;;;19.50;40.70;;;;;;5034315;28;20518;-67
2021/01/26 12:00:00;;;;;;;2.33;2.07;;;19.50;40.50;;;;;;5035062;28;20486;-68
2021/01/26 12:02:27;;;;;;;2.10;1.90;;;19.50;40.70;;;;;;5035590;28;20478;-68
2021/01/26 12:04:54;;;;;;;2.33;2.23;;;19.40;40.70;;;;;;5031212;28;20489;-68
2021/01/26 12:07:20;;;;;;;1.77;1.67;;;19.40;40.70;;;;;;5036357;28;20478;-67
2021/01/26 12:09:46;;;;;;;2.10;2.00;;;19.40;40.70;;;;;;5026662;28;20494;-67
2021/01/26 12:12:14;;;;;;;1.60;1.53;;;19.40;40.70;;;;;;5044193;28;20489;-67
2021/01/26 12:14:40;;;;;;;2.10;2.00;;;19.30;40.70;;;;;;5031480;28;20490;-68
2021/01/26 12:17:06;;;;;;;2.90;2.60;;;19.30;41.60;;;;;;5035353;28;20482;-67
2021/01/26 12:19:33;;;;;;;2.07;1.80;;;19.40;40.80;;;;;;5032696;28;20490;-67
2021/01/26 12:22:00;;;;;;;1.77;1.67;;;19.30;40.80;;;;;;5029740;28;20539;-68
2021/01/26 12:24:26;;;;;;;1.70;1.60;;;19.40;41.60;;;;;;5041272;28;20470;-68
2021/01/26 12:26:53;;;;;;;2.10;1.90;;;19.40;40.80;;;;;;5034635;28;20478;-68
2021/01/26 12:29:19;;;;;;;1.80;1.50;;;19.40;40.80;;;;;;5019065;28;20482;-67
2021/01/26 12:31:45;;;;;;;2.00;1.90;;;19.40;40.80;;;;;;5034828;28;20518;-69
2021/01/26 12:34:12;;;;;;;1.60;1.50;;;19.40;40.80;;;;;;5034542;28;21121;-67
2021/01/26 12:36:39;;;;;;;2.37;2.17;;;19.40;40.90;;;;;;5040323;28;20498;-68
2021/01/26 12:39:05;;;;;;;3.90;1.50;;;19.40;40.90;;;;;;5034537;28;20974;-69
2021/01/26 12:41:32;;;;;;;1.40;1.33;;;19.40;41.90;;;;;;5031012;28;20549;-67
2021/01/26 12:43:58;;;;;;;1.30;1.20;;;19.40;40.90;;;;;;5021744;28;21162;-67
2021/01/26 12:46:24;;;;;;;1.80;1.70;;;19.40;40.90;;;;;;5039900;28;20875;-68
2021/01/26 12:48:51;;;;;;;1.90;1.80;;;19.30;40.90;;;;;;5035126;28;20475;-68
2021/01/26 12:51:17;;;;;;;2.10;2.00;;;19.30;41.00;;;;;;5030455;28;20486;-67
2021/01/26 12:53:44;;;;;;;1.30;1.30;;;19.30;40.90;;;;;;5034065;28;20478;-68
2021/01/26 12:56:10;;;;;;;2.40;1.80;;;19.30;40.90;;;;;;5034839;28;20490;-68
2021/01/26 12:58:36;;;;;;;1.50;1.50;;;19.30;40.90;;;;;;5032904;28;20490;-68
2021/01/26 13:01:02;;;;;;;1.50;1.40;;;19.30;41.00;;;;;;5033627;28;20577;-67
2021/01/26 13:03:28;;;;;;;1.60;1.60;;;19.30;40.90;;;;;;5031343;28;20510;-68